LFPM 191900Z AUTO 01007KT 340V040 CAVOK 23/16 Q1020

Les avions qui composent notre flotte

Avion Robin DR400 2+2

L'avion école par excellence

F-GAVN
   * tarif promotionnel appliqué pendant la formation des élèves non brevetés


F-GAVN Planche